Mount Vernon, South Dakota
Current Conditions -  °F | °C
As of 3:53 PM on Monday 26 Jan 2015 (Local Time) from KMHE Reporting Station
Clear Clear  
Wind Chill: 53°   Ceiling: Unl
Heat Index: 53°   Visibility: 10mi
Dew Point: 38°   Wind: 12mph
Humidity: 57%   Direction: 340°NNW
Pressure: 29.98"   Gusts: NA
Location:  43.71°N, 98.26°W
Report Text: KMHE 262153Z AUTO 34010KT 10SM CLR 12/03 A2998 RMK AO2 SLP157 T01170033
Loading
Personal Weather Stations






























Interactive Weather Map New forecast layout! Learn more

10-Day Weather Forecast

Advertisements
Track Severe Weather on mobile